Terminal Aerodrome Forecast
Issued by NWS Cleveland, OH

Home | Current Version | Previous Version | Graphics & Text | Print | Product List | Glossary On
Versions: 1 2 3 4 5 6 7 8 9 10 11 12 13 14 15 16 17 18 19
000
FTUS41 KCLE 211100 AAA
TAFERI
TAF AMD
KERI 211108Z 2111/2206 20012KT 6SM -SHRA SCT030 OVC100
      TEMPO 2111/2113 BKN030
     FM211300 20012G20KT P6SM BKN040 OVC100
     FM211700 26012G22KT P6SM BKN030
     FM212000 28014G22KT P6SM VCTS BKN035CB
      TEMPO 2120/2124 5SM -SHRA OVC035
     FM220100 34010KT P6SM VCSH BKN030=

USA.gov is the U.S. government's official web portal to all federal, state and local government web resources and services.